createdAt,value
2022-12-17T00:00:29.136Z,32
2022-12-17T00:06:09.008Z,32
2022-12-17T00:11:35.259Z,31.9
2022-12-17T00:17:03.362Z,31.9
2022-12-17T00:28:13.186Z,31.9
2022-12-17T00:33:53.245Z,31.9
2022-12-17T00:39:31.304Z,31.8
2022-12-17T00:44:57.390Z,31.8
2022-12-17T00:50:20.574Z,31.8
2022-12-17T00:55:45.930Z,31.8
2022-12-17T01:01:29.720Z,31.8
2022-12-17T01:06:38.754Z,31.8
2022-12-17T01:12:18.794Z,31.8
2022-12-17T01:17:46.043Z,31.8
2022-12-17T01:23:12.729Z,31.7
2022-12-17T01:28:52.451Z,31.6
2022-12-17T01:34:37.658Z,31.6
2022-12-17T01:40:15.134Z,31.6
2022-12-17T01:45:53.411Z,31.6
2022-12-17T01:51:32.062Z,31.6
2022-12-17T01:56:53.986Z,31.6
2022-12-17T02:02:00.784Z,31.6
2022-12-17T02:07:24.569Z,31.8
2022-12-17T02:12:45.817Z,32.2
2022-12-17T02:18:08.541Z,32.9
2022-12-17T02:23:47.044Z,33.7
2022-12-17T02:29:09.152Z,34.6
2022-12-17T02:34:46.928Z,35.5
2022-12-17T02:40:28.436Z,36.4
2022-12-17T02:46:06.145Z,37.2
2022-12-17T02:51:27.486Z,37.9
2022-12-17T02:56:50.423Z,38.6
2022-12-17T03:02:31.407Z,39.4
2022-12-17T03:08:44.928Z,40
2022-12-17T03:14:24.624Z,40.4
2022-12-17T03:20:02.409Z,40.6
2022-12-17T03:25:40.479Z,40.8
2022-12-17T03:31:24.289Z,41
2022-12-17T03:36:47.083Z,41.1
2022-12-17T03:42:23.147Z,41.1
2022-12-17T03:48:01.566Z,41.1
2022-12-17T03:53:22.700Z,41.1
2022-12-17T03:58:59.955Z,41.1
2022-12-17T04:04:40.664Z,41.1
2022-12-17T04:10:23.915Z,41.1
2022-12-17T04:16:07.324Z,41.1
2022-12-17T04:21:45.979Z,41.1
2022-12-17T04:27:06.649Z,41.1
2022-12-17T04:32:50.150Z,41.1
2022-12-17T04:38:28.866Z,41
2022-12-17T04:44:06.401Z,41
2022-12-17T04:55:07.036Z,40.9
2022-12-17T05:00:44.055Z,40.9
2022-12-17T05:06:07.965Z,40.9
2022-12-17T05:11:46.891Z,40.9
2022-12-17T05:17:31.301Z,40.8
2022-12-17T05:23:12.494Z,40.8
2022-12-17T05:28:52.830Z,40.8
2022-12-17T05:34:35.463Z,40.8
2022-12-17T05:40:14.119Z,40.7
2022-12-17T05:45:52.672Z,40.7
2022-12-17T05:51:33.489Z,40.6
2022-12-17T05:56:56.391Z,40.6
2022-12-17T06:02:41.535Z,40.6
2022-12-17T06:08:04.515Z,40.5
2022-12-17T06:19:06.888Z,40.4
2022-12-17T06:24:29.124Z,40.4
2022-12-17T06:30:06.501Z,40.4
2022-12-17T06:35:46.005Z,40.4
2022-12-17T06:41:26.237Z,40.4
2022-12-17T06:47:09.042Z,40.3
2022-12-17T06:52:48.248Z,40.3
2022-12-17T06:58:30.725Z,40.3
2022-12-17T07:04:09.876Z,40.3
2022-12-17T07:09:47.998Z,40.2
2022-12-17T07:15:33.840Z,40.1
2022-12-17T07:20:55.448Z,40.1
2022-12-17T07:26:19.477Z,40.1
2022-12-17T07:32:01.816Z,40
2022-12-17T07:37:40.327Z,39.9
2022-12-17T07:43:19.075Z,39.9
2022-12-17T07:48:57.559Z,39.8
2022-12-17T08:00:01.827Z,39.7
2022-12-17T08:05:41.768Z,39.6
2022-12-17T08:11:23.934Z,39.7
2022-12-17T08:16:37.463Z,39.7
2022-12-17T08:22:08.705Z,39.6
2022-12-17T08:27:52.786Z,39.6
2022-12-17T08:34:08.398Z,39.5
2022-12-17T08:39:45.379Z,39.4
2022-12-17T08:45:30.177Z,39.3
2022-12-17T08:51:08.889Z,39.3
2022-12-17T08:56:46.774Z,39.3
2022-12-17T09:02:25.941Z,39.2
2022-12-17T09:08:05.659Z,39.1
2022-12-17T09:13:43.185Z,39.1
2022-12-17T09:19:21.044Z,39.1
2022-12-17T09:25:00.644Z,39
2022-12-17T09:30:43.689Z,39
2022-12-17T09:36:25.301Z,38.9
2022-12-17T09:42:10.414Z,38.9
2022-12-17T09:47:38.121Z,38.8
2022-12-17T09:53:04.518Z,38.8
2022-12-17T09:58:27.917Z,38.8
2022-12-17T10:04:08.908Z,38.7
2022-12-17T10:09:47.737Z,38.4
2022-12-17T10:15:32.081Z,38.3
2022-12-17T10:21:10.087Z,38.2
2022-12-17T10:26:52.090Z,38.1
2022-12-17T10:32:19.546Z,38.1
2022-12-17T10:37:56.363Z,38
2022-12-17T10:43:40.125Z,37.9
2022-12-17T10:49:23.451Z,37.9
2022-12-17T10:55:06.142Z,37.8
2022-12-17T11:00:49.281Z,37.8
2022-12-17T11:06:16.542Z,37.9
2022-12-17T11:12:07.403Z,37.9
2022-12-17T11:17:52.011Z,37.9
2022-12-17T11:23:32.292Z,37.9
2022-12-17T11:29:09.911Z,37.9
2022-12-17T11:34:47.509Z,37.9
2022-12-17T11:40:36.017Z,37.9
2022-12-17T11:45:58.664Z,37.8
2022-12-17T11:51:24.375Z,37.8
2022-12-17T11:57:09.007Z,37.8
2022-12-17T12:02:55.670Z,37.7
2022-12-17T12:08:40.549Z,37.7
2022-12-17T12:14:18.975Z,37.7
2022-12-17T12:19:57.278Z,37.6
2022-12-17T12:25:36.618Z,37.6
2022-12-17T12:31:21.426Z,37.6
2022-12-17T12:37:04.637Z,37.5
2022-12-17T12:42:42.823Z,37.5
2022-12-17T12:48:21.203Z,37.4
2022-12-17T12:54:02.369Z,37.4
2022-12-17T12:59:46.134Z,37.4
2022-12-17T13:05:30.612Z,37.3
2022-12-17T13:10:57.526Z,37.3
2022-12-17T13:16:39.511Z,37.3
2022-12-17T13:22:23.873Z,37.3
2022-12-17T13:28:01.986Z,37.2
2022-12-17T13:33:31.201Z,37.1
2022-12-17T13:39:11.782Z,37.1
2022-12-17T13:44:50.617Z,37.1
2022-12-17T13:51:04.425Z,37.1
2022-12-17T13:56:43.833Z,37
2022-12-17T14:02:26.067Z,37
2022-12-17T14:08:34.169Z,36.9
2022-12-17T14:14:12.333Z,36.9
2022-12-17T14:19:53.190Z,36.9
2022-12-17T14:25:19.070Z,36.8
2022-12-17T14:31:41.479Z,36.8
2022-12-17T14:37:30.599Z,36.8
2022-12-17T14:43:27.857Z,36.7
2022-12-17T14:49:10.264Z,36.7
2022-12-17T14:54:47.925Z,36.6
2022-12-17T15:00:25.901Z,36.6
2022-12-17T15:11:33.167Z,36.6
2022-12-17T15:16:59.432Z,36.5
2022-12-17T15:22:42.450Z,36.5
2022-12-17T15:27:57.690Z,36.4
2022-12-17T15:33:23.518Z,36.4
2022-12-17T15:39:05.058Z,36.1
2022-12-17T15:44:45.338Z,35.9
2022-12-17T15:50:29.239Z,35.7
2022-12-17T15:56:08.755Z,35.6
2022-12-17T16:07:03.680Z,35.5
2022-12-17T16:17:58.954Z,35.3
2022-12-17T16:29:05.583Z,35.3
2022-12-17T16:34:50.403Z,35.1
2022-12-17T16:40:33.198Z,35.1
2022-12-17T16:46:12.389Z,35.1
2022-12-17T16:51:58.864Z,35.3
2022-12-17T16:57:40.934Z,35.3
2022-12-17T17:03:10.266Z,35.3
2022-12-17T17:08:47.790Z,35.3
2022-12-17T17:14:25.741Z,35.3
2022-12-17T17:20:25.342Z,35.3
2022-12-17T17:26:23.233Z,35.3
2022-12-17T17:32:41.752Z,35.3
2022-12-17T17:38:20.473Z,35.3
2022-12-17T17:43:59.441Z,35.3
2022-12-17T17:49:43.364Z,35.3
2022-12-17T17:55:57.142Z,35.3
2022-12-17T18:01:41.694Z,35.2
2022-12-17T18:07:49.166Z,35.2
2022-12-17T18:13:34.687Z,35.2
2022-12-17T18:19:30.227Z,35.1
2022-12-17T18:25:07.845Z,35.1
2022-12-17T18:30:46.638Z,35.1
2022-12-17T18:36:09.459Z,35.1
2022-12-17T18:41:52.365Z,35.1
2022-12-17T18:47:32.219Z,35
2022-12-17T18:53:22.056Z,34.9
2022-12-17T18:59:29.595Z,34.9
2022-12-17T19:05:09.378Z,34.8
2022-12-17T19:10:52.117Z,34.7
2022-12-17T19:16:31.721Z,34.4
2022-12-17T19:22:10.456Z,34.3
2022-12-17T19:27:32.455Z,34.1
2022-12-17T19:33:14.132Z,34.1
2022-12-17T19:38:57.717Z,34
2022-12-17T19:44:35.053Z,33.9
2022-12-17T19:50:14.013Z,33.8
2022-12-17T19:56:02.026Z,33.8
2022-12-17T20:01:40.132Z,33.8
2022-12-17T20:07:20.159Z,33.7
2022-12-17T20:12:59.303Z,33.6
2022-12-17T20:18:41.810Z,33.7
2022-12-17T20:24:19.396Z,33.8
2022-12-17T20:35:08.734Z,33.9
2022-12-17T20:40:34.010Z,34.3
2022-12-17T20:46:16.275Z,34.3
2022-12-17T20:51:38.862Z,35.3
2022-12-17T20:57:22.037Z,35.9
2022-12-17T21:03:03.316Z,36.6
2022-12-17T21:08:44.859Z,37.5
2022-12-17T21:19:25.742Z,38.5
2022-12-17T21:24:58.334Z,38.7
2022-12-17T21:34:51.359Z,38.7
2022-12-17T21:40:19.356Z,38.8
2022-12-17T21:46:01.070Z,38.9
2022-12-17T21:51:46.196Z,38.8
2022-12-17T21:57:10.180Z,38.9
2022-12-17T22:02:57.203Z,38.9
2022-12-17T22:21:39.161Z,38.8
2022-12-17T22:26:51.980Z,38.8
2022-12-17T22:32:18.944Z,38.8
2022-12-17T22:48:20.537Z,38.8
2022-12-17T22:54:50.009Z,38.8
2022-12-17T23:01:39.352Z,38.8
2022-12-17T23:07:19.596Z,38.7
2022-12-17T23:12:57.536Z,38.7
2022-12-17T23:18:35.443Z,38.6
2022-12-17T23:24:01.176Z,38.6
2022-12-17T23:29:38.160Z,38.6
2022-12-17T23:35:01.346Z,38.6
2022-12-17T23:40:43.427Z,38.6
2022-12-17T23:46:22.092Z,38.5
2022-12-17T23:52:04.497Z,38.5
2022-12-17T23:57:43.371Z,38.4
